sensor_id;sensor_type;location;lat;lon;timestamp;P1;durP1;ratioP1;P2;durP2;ratioP2
53497;SDS011;39382;47.168;16.008;2023-07-22T00:00:43;3.83;;;2.58;;
53497;SDS011;39382;47.168;16.008;2023-07-22T00:03:08;5.25;;;3.03;;
53497;SDS011;39382;47.168;16.008;2023-07-22T00:05:34;5.75;;;3.15;;
53497;SDS011;39382;47.168;16.008;2023-07-22T00:07:59;3.25;;;2.58;;
53497;SDS011;39382;47.168;16.008;2023-07-22T00:10:25;3.75;;;2.38;;
53497;SDS011;39382;47.168;16.008;2023-07-22T00:12:51;3.72;;;3.30;;
53497;SDS011;39382;47.168;16.008;2023-07-22T00:15:16;5.47;;;2.63;;
53497;SDS011;39382;47.168;16.008;2023-07-22T00:17:42;2.60;;;2.10;;
53497;SDS011;39382;47.168;16.008;2023-07-22T00:20:08;4.15;;;2.92;;
53497;SDS011;39382;47.168;16.008;2023-07-22T00:22:39;13.15;;;5.63;;
53497;SDS011;39382;47.168;16.008;2023-07-22T00:25:05;7.47;;;5.35;;
53497;SDS011;39382;47.168;16.008;2023-07-22T00:27:35;7.32;;;5.85;;
53497;SDS011;39382;47.168;16.008;2023-07-22T00:30:01;9.48;;;4.13;;
53497;SDS011;39382;47.168;16.008;2023-07-22T00:32:26;4.45;;;3.75;;
53497;SDS011;39382;47.168;16.008;2023-07-22T00:34:52;5.63;;;3.03;;
53497;SDS011;39382;47.168;16.008;2023-07-22T00:37:17;4.82;;;2.92;;
53497;SDS011;39382;47.168;16.008;2023-07-22T00:39:43;8.70;;;2.72;;
53497;SDS011;39382;47.168;16.008;2023-07-22T00:42:08;4.45;;;2.42;;
53497;SDS011;39382;47.168;16.008;2023-07-22T00:44:34;3.90;;;2.30;;
53497;SDS011;39382;47.168;16.008;2023-07-22T00:47:01;4.82;;;2.72;;
53497;SDS011;39382;47.168;16.008;2023-07-22T00:49:27;3.72;;;2.60;;
53497;SDS011;39382;47.168;16.008;2023-07-22T00:51:55;6.43;;;2.63;;
53497;SDS011;39382;47.168;16.008;2023-07-22T00:54:25;3.17;;;2.88;;
53497;SDS011;39382;47.168;16.008;2023-07-22T00:56:50;3.80;;;2.92;;
53497;SDS011;39382;47.168;16.008;2023-07-22T00:59:17;3.25;;;2.28;;
53497;SDS011;39382;47.168;16.008;2023-07-22T01:01:42;5.22;;;2.97;;
53497;SDS011;39382;47.168;16.008;2023-07-22T01:04:08;3.75;;;2.80;;
53497;SDS011;39382;47.168;16.008;2023-07-22T01:06:34;3.65;;;2.70;;
53497;SDS011;39382;47.168;16.008;2023-07-22T01:09:00;3.13;;;2.00;;
53497;SDS011;39382;47.168;16.008;2023-07-22T01:11:26;4.28;;;2.50;;
53497;SDS011;39382;47.168;16.008;2023-07-22T01:13:51;4.68;;;2.05;;
53497;SDS011;39382;47.168;16.008;2023-07-22T01:16:23;3.58;;;2.03;;
53497;SDS011;39382;47.168;16.008;2023-07-22T01:18:50;2.90;;;2.22;;
53497;SDS011;39382;47.168;16.008;2023-07-22T01:21:16;3.53;;;2.35;;
53497;SDS011;39382;47.168;16.008;2023-07-22T01:23:43;6.63;;;2.30;;
53497;SDS011;39382;47.168;16.008;2023-07-22T01:26:08;5.50;;;2.40;;
53497;SDS011;39382;47.168;16.008;2023-07-22T01:28:34;3.05;;;2.25;;
53497;SDS011;39382;47.168;16.008;2023-07-22T01:31:00;3.20;;;2.30;;
53497;SDS011;39382;47.168;16.008;2023-07-22T01:33:26;4.30;;;1.95;;
53497;SDS011;39382;47.168;16.008;2023-07-22T01:35:52;3.17;;;2.53;;
53497;SDS011;39382;47.168;16.008;2023-07-22T01:38:18;2.10;;;1.77;;
53497;SDS011;39382;47.168;16.008;2023-07-22T01:40:44;2.75;;;2.08;;
53497;SDS011;39382;47.168;16.008;2023-07-22T01:43:10;3.90;;;2.78;;
53497;SDS011;39382;47.168;16.008;2023-07-22T01:45:35;1.98;;;1.77;;
53497;SDS011;39382;47.168;16.008;2023-07-22T01:48:02;2.05;;;1.85;;
53497;SDS011;39382;47.168;16.008;2023-07-22T01:50:28;2.13;;;1.63;;
53497;SDS011;39382;47.168;16.008;2023-07-22T01:52:54;3.50;;;2.47;;
53497;SDS011;39382;47.168;16.008;2023-07-22T01:55:20;5.97;;;2.80;;
53497;SDS011;39382;47.168;16.008;2023-07-22T01:57:46;3.85;;;2.38;;
53497;SDS011;39382;47.168;16.008;2023-07-22T02:00:11;2.40;;;2.20;;
53497;SDS011;39382;47.168;16.008;2023-07-22T02:02:37;2.80;;;2.22;;
53497;SDS011;39382;47.168;16.008;2023-07-22T02:05:03;7.60;;;2.50;;
53497;SDS011;39382;47.168;16.008;2023-07-22T02:07:29;2.55;;;1.88;;
53497;SDS011;39382;47.168;16.008;2023-07-22T02:09:56;5.13;;;2.60;;
53497;SDS011;39382;47.168;16.008;2023-07-22T02:12:21;4.22;;;1.95;;
53497;SDS011;39382;47.168;16.008;2023-07-22T02:14:47;5.47;;;2.13;;
53497;SDS011;39382;47.168;16.008;2023-07-22T02:17:12;5.80;;;2.25;;
53497;SDS011;39382;47.168;16.008;2023-07-22T02:19:38;2.47;;;1.80;;
53497;SDS011;39382;47.168;16.008;2023-07-22T02:22:04;2.10;;;1.92;;
53497;SDS011;39382;47.168;16.008;2023-07-22T02:24:30;5.35;;;2.13;;
53497;SDS011;39382;47.168;16.008;2023-07-22T02:26:56;3.45;;;1.98;;
53497;SDS011;39382;47.168;16.008;2023-07-22T02:29:21;2.72;;;1.85;;
53497;SDS011;39382;47.168;16.008;2023-07-22T02:31:47;2.60;;;2.10;;
53497;SDS011;39382;47.168;16.008;2023-07-22T02:34:13;4.47;;;2.20;;
53497;SDS011;39382;47.168;16.008;2023-07-22T02:36:38;3.03;;;2.60;;
53497;SDS011;39382;47.168;16.008;2023-07-22T02:39:04;7.55;;;2.35;;
53497;SDS011;39382;47.168;16.008;2023-07-22T02:41:29;5.45;;;2.67;;
53497;SDS011;39382;47.168;16.008;2023-07-22T02:43:55;5.80;;;2.38;;
53497;SDS011;39382;47.168;16.008;2023-07-22T02:46:22;3.10;;;2.80;;
53497;SDS011;39382;47.168;16.008;2023-07-22T02:48:47;6.05;;;2.72;;
53497;SDS011;39382;47.168;16.008;2023-07-22T02:51:13;10.32;;;2.05;;
53497;SDS011;39382;47.168;16.008;2023-07-22T02:53:39;2.92;;;2.35;;
53497;SDS011;39382;47.168;16.008;2023-07-22T02:56:06;3.95;;;2.17;;
53497;SDS011;39382;47.168;16.008;2023-07-22T02:58:32;2.35;;;2.15;;
53497;SDS011;39382;47.168;16.008;2023-07-22T03:00:58;6.63;;;2.10;;
53497;SDS011;39382;47.168;16.008;2023-07-22T03:03:24;4.07;;;2.03;;
53497;SDS011;39382;47.168;16.008;2023-07-22T03:05:50;2.22;;;2.00;;
53497;SDS011;39382;47.168;16.008;2023-07-22T03:08:17;2.03;;;1.80;;
53497;SDS011;39382;47.168;16.008;2023-07-22T03:10:43;9.75;;;1.98;;
53497;SDS011;39382;47.168;16.008;2023-07-22T03:13:13;3.17;;;2.20;;
53497;SDS011;39382;47.168;16.008;2023-07-22T03:15:39;2.88;;;2.20;;
53497;SDS011;39382;47.168;16.008;2023-07-22T03:18:05;3.03;;;2.28;;
53497;SDS011;39382;47.168;16.008;2023-07-22T03:20:31;6.75;;;2.20;;
53497;SDS011;39382;47.168;16.008;2023-07-22T03:22:57;4.07;;;1.85;;
53497;SDS011;39382;47.168;16.008;2023-07-22T03:25:22;4.10;;;1.80;;
53497;SDS011;39382;47.168;16.008;2023-07-22T03:27:48;4.03;;;2.33;;
53497;SDS011;39382;47.168;16.008;2023-07-22T03:30:14;2.88;;;2.10;;
53497;SDS011;39382;47.168;16.008;2023-07-22T03:32:43;4.25;;;2.53;;
53497;SDS011;39382;47.168;16.008;2023-07-22T03:35:09;5.10;;;2.40;;
53497;SDS011;39382;47.168;16.008;2023-07-22T03:37:37;3.10;;;2.13;;
53497;SDS011;39382;47.168;16.008;2023-07-22T03:40:04;2.97;;;1.65;;
53497;SDS011;39382;47.168;16.008;2023-07-22T03:42:42;3.65;;;1.90;;
53497;SDS011;39382;47.168;16.008;2023-07-22T03:45:08;2.40;;;1.92;;
53497;SDS011;39382;47.168;16.008;2023-07-22T03:47:37;2.40;;;1.90;;
53497;SDS011;39382;47.168;16.008;2023-07-22T03:50:04;2.85;;;1.73;;
53497;SDS011;39382;47.168;16.008;2023-07-22T03:52:30;3.00;;;1.83;;
53497;SDS011;39382;47.168;16.008;2023-07-22T03:54:56;4.93;;;2.20;;
53497;SDS011;39382;47.168;16.008;2023-07-22T03:57:25;3.22;;;2.20;;
53497;SDS011;39382;47.168;16.008;2023-07-22T03:59:52;2.63;;;1.90;;
53497;SDS011;39382;47.168;16.008;2023-07-22T04:02:20;2.25;;;1.88;;
53497;SDS011;39382;47.168;16.008;2023-07-22T04:04:46;7.05;;;1.90;;
53497;SDS011;39382;47.168;16.008;2023-07-22T04:07:12;3.13;;;2.50;;
53497;SDS011;39382;47.168;16.008;2023-07-22T04:09:37;5.85;;;2.53;;
53497;SDS011;39382;47.168;16.008;2023-07-22T04:12:03;3.97;;;2.00;;
53497;SDS011;39382;47.168;16.008;2023-07-22T04:14:29;3.20;;;2.10;;
53497;SDS011;39382;47.168;16.008;2023-07-22T04:16:55;5.47;;;2.22;;
53497;SDS011;39382;47.168;16.008;2023-07-22T04:19:21;6.18;;;3.33;;
53497;SDS011;39382;47.168;16.008;2023-07-22T04:21:46;2.83;;;2.38;;
53497;SDS011;39382;47.168;16.008;2023-07-22T04:24:12;7.20;;;3.10;;
53497;SDS011;39382;47.168;16.008;2023-07-22T04:26:37;10.02;;;3.70;;
53497;SDS011;39382;47.168;16.008;2023-07-22T04:29:03;5.13;;;3.40;;
53497;SDS011;39382;47.168;16.008;2023-07-22T04:31:29;13.95;;;5.07;;
53497;SDS011;39382;47.168;16.008;2023-07-22T04:33:55;4.72;;;3.03;;
53497;SDS011;39382;47.168;16.008;2023-07-22T04:36:22;3.15;;;2.63;;
53497;SDS011;39382;47.168;16.008;2023-07-22T04:38:47;12.23;;;3.67;;
53497;SDS011;39382;47.168;16.008;2023-07-22T04:41:13;4.85;;;3.55;;
53497;SDS011;39382;47.168;16.008;2023-07-22T04:43:38;8.27;;;5.45;;
53497;SDS011;39382;47.168;16.008;2023-07-22T04:46:05;11.95;;;4.03;;
53497;SDS011;39382;47.168;16.008;2023-07-22T04:48:31;4.15;;;2.92;;
53497;SDS011;39382;47.168;16.008;2023-07-22T04:50:57;7.22;;;3.30;;
53497;SDS011;39382;47.168;16.008;2023-07-22T04:53:22;5.50;;;3.22;;
53497;SDS011;39382;47.168;16.008;2023-07-22T04:55:48;6.65;;;2.90;;
53497;SDS011;39382;47.168;16.008;2023-07-22T04:58:13;7.38;;;2.63;;
53497;SDS011;39382;47.168;16.008;2023-07-22T05:00:39;4.97;;;3.50;;
53497;SDS011;39382;47.168;16.008;2023-07-22T05:03:07;4.03;;;3.63;;
53497;SDS011;39382;47.168;16.008;2023-07-22T05:05:32;3.88;;;3.33;;
53497;SDS011;39382;47.168;16.008;2023-07-22T05:07:58;4.30;;;2.70;;
53497;SDS011;39382;47.168;16.008;2023-07-22T05:10:23;2.72;;;2.08;;
53497;SDS011;39382;47.168;16.008;2023-07-22T05:12:49;2.80;;;1.80;;
53497;SDS011;39382;47.168;16.008;2023-07-22T05:15:14;6.65;;;3.53;;
53497;SDS011;39382;47.168;16.008;2023-07-22T05:17:40;3.55;;;2.78;;
53497;SDS011;39382;47.168;16.008;2023-07-22T05:20:06;4.13;;;2.60;;
53497;SDS011;39382;47.168;16.008;2023-07-22T05:22:35;5.53;;;3.38;;
53497;SDS011;39382;47.168;16.008;2023-07-22T05:25:02;5.35;;;3.05;;
53497;SDS011;39382;47.168;16.008;2023-07-22T05:27:29;3.95;;;2.05;;
53497;SDS011;39382;47.168;16.008;2023-07-22T05:29:54;1.65;;;1.55;;
53497;SDS011;39382;47.168;16.008;2023-07-22T05:32:20;1.90;;;1.80;;
53497;SDS011;39382;47.168;16.008;2023-07-22T05:34:46;3.63;;;2.72;;
53497;SDS011;39382;47.168;16.008;2023-07-22T05:37:11;3.83;;;1.90;;
53497;SDS011;39382;47.168;16.008;2023-07-22T05:39:37;3.20;;;2.22;;
53497;SDS011;39382;47.168;16.008;2023-07-22T05:42:03;3.60;;;1.85;;
53497;SDS011;39382;47.168;16.008;2023-07-22T05:44:28;6.43;;;1.65;;
53497;SDS011;39382;47.168;16.008;2023-07-22T05:46:54;2.35;;;1.75;;
53497;SDS011;39382;47.168;16.008;2023-07-22T05:49:20;2.30;;;1.88;;
53497;SDS011;39382;47.168;16.008;2023-07-22T05:51:45;1.75;;;1.65;;
53497;SDS011;39382;47.168;16.008;2023-07-22T05:54:11;2.08;;;1.48;;
53497;SDS011;39382;47.168;16.008;2023-07-22T05:56:37;2.67;;;1.98;;
53497;SDS011;39382;47.168;16.008;2023-07-22T05:59:02;6.18;;;1.60;;
53497;SDS011;39382;47.168;16.008;2023-07-22T06:01:28;1.75;;;1.38;;
53497;SDS011;39382;47.168;16.008;2023-07-22T06:03:54;2.65;;;1.33;;
53497;SDS011;39382;47.168;16.008;2023-07-22T06:06:19;1.73;;;1.48;;
53497;SDS011;39382;47.168;16.008;2023-07-22T06:08:45;1.35;;;1.25;;
53497;SDS011;39382;47.168;16.008;2023-07-22T06:11:10;3.03;;;1.50;;
53497;SDS011;39382;47.168;16.008;2023-07-22T06:13:36;2.72;;;1.50;;
53497;SDS011;39382;47.168;16.008;2023-07-22T06:16:02;2.30;;;1.27;;
53497;SDS011;39382;47.168;16.008;2023-07-22T06:18:28;2.63;;;1.70;;
53497;SDS011;39382;47.168;16.008;2023-07-22T06:20:53;5.38;;;1.80;;
53497;SDS011;39382;47.168;16.008;2023-07-22T06:23:19;2.05;;;0.95;;
53497;SDS011;39382;47.168;16.008;2023-07-22T06:25:45;1.30;;;1.15;;
53497;SDS011;39382;47.168;16.008;2023-07-22T06:28:10;5.45;;;1.52;;
53497;SDS011;39382;47.168;16.008;2023-07-22T06:30:36;1.55;;;1.23;;
53497;SDS011;39382;47.168;16.008;2023-07-22T06:33:01;1.38;;;1.17;;
53497;SDS011;39382;47.168;16.008;2023-07-22T06:35:27;2.67;;;1.45;;
53497;SDS011;39382;47.168;16.008;2023-07-22T06:37:53;6.88;;;2.00;;
53497;SDS011;39382;47.168;16.008;2023-07-22T06:40:19;2.15;;;1.38;;
53497;SDS011;39382;47.168;16.008;2023-07-22T06:42:44;1.50;;;1.40;;
53497;SDS011;39382;47.168;16.008;2023-07-22T06:45:10;2.83;;;1.80;;
53497;SDS011;39382;47.168;16.008;2023-07-22T06:47:36;5.07;;;1.58;;
53497;SDS011;39382;47.168;16.008;2023-07-22T06:50:05;2.28;;;1.67;;
53497;SDS011;39382;47.168;16.008;2023-07-22T06:52:31;1.70;;;1.17;;
53497;SDS011;39382;47.168;16.008;2023-07-22T06:54:57;3.35;;;2.00;;
53497;SDS011;39382;47.168;16.008;2023-07-22T06:57:22;2.92;;;1.65;;
53497;SDS011;39382;47.168;16.008;2023-07-22T06:59:51;3.88;;;2.65;;
53497;SDS011;39382;47.168;16.008;2023-07-22T07:02:18;3.00;;;2.08;;
53497;SDS011;39382;47.168;16.008;2023-07-22T07:04:44;1.65;;;1.50;;
53497;SDS011;39382;47.168;16.008;2023-07-22T07:07:10;3.40;;;2.05;;
53497;SDS011;39382;47.168;16.008;2023-07-22T07:09:37;2.35;;;1.55;;
53497;SDS011;39382;47.168;16.008;2023-07-22T07:12:03;2.08;;;1.60;;
53497;SDS011;39382;47.168;16.008;2023-07-22T07:14:29;1.55;;;1.45;;
53497;SDS011;39382;47.168;16.008;2023-07-22T07:16:55;1.88;;;1.30;;
53497;SDS011;39382;47.168;16.008;2023-07-22T07:19:20;6.35;;;1.58;;
53497;SDS011;39382;47.168;16.008;2023-07-22T07:21:46;6.35;;;1.45;;
53497;SDS011;39382;47.168;16.008;2023-07-22T07:24:12;1.67;;;1.58;;
53497;SDS011;39382;47.168;16.008;2023-07-22T07:26:37;2.30;;;1.90;;
53497;SDS011;39382;47.168;16.008;2023-07-22T07:29:03;2.00;;;1.33;;
53497;SDS011;39382;47.168;16.008;2023-07-22T07:31:29;1.67;;;1.10;;
53497;SDS011;39382;47.168;16.008;2023-07-22T07:33:55;1.88;;;1.15;;
53497;SDS011;39382;47.168;16.008;2023-07-22T07:36:20;1.23;;;1.15;;
53497;SDS011;39382;47.168;16.008;2023-07-22T07:38:46;3.78;;;1.38;;
53497;SDS011;39382;47.168;16.008;2023-07-22T07:41:12;2.97;;;1.20;;
53497;SDS011;39382;47.168;16.008;2023-07-22T07:43:39;1.65;;;1.15;;
53497;SDS011;39382;47.168;16.008;2023-07-22T07:48:39;2.20;;;1.15;;
53497;SDS011;39382;47.168;16.008;2023-07-22T07:51:05;3.13;;;1.58;;
53497;SDS011;39382;47.168;16.008;2023-07-22T07:53:31;2.70;;;1.83;;
53497;SDS011;39382;47.168;16.008;2023-07-22T07:55:56;2.05;;;1.40;;
53497;SDS011;39382;47.168;16.008;2023-07-22T07:58:22;2.20;;;1.15;;
53497;SDS011;39382;47.168;16.008;2023-07-22T08:00:47;1.70;;;1.40;;
53497;SDS011;39382;47.168;16.008;2023-07-22T08:03:13;2.08;;;1.38;;
53497;SDS011;39382;47.168;16.008;2023-07-22T08:05:39;4.95;;;2.08;;
53497;SDS011;39382;47.168;16.008;2023-07-22T08:08:05;1.80;;;1.25;;
53497;SDS011;39382;47.168;16.008;2023-07-22T08:10:30;5.18;;;1.58;;
53497;SDS011;39382;47.168;16.008;2023-07-22T08:12:56;1.15;;;1.05;;
53497;SDS011;39382;47.168;16.008;2023-07-22T08:15:21;1.80;;;1.70;;
53497;SDS011;39382;47.168;16.008;2023-07-22T08:17:47;2.10;;;1.17;;
53497;SDS011;39382;47.168;16.008;2023-07-22T08:20:13;4.57;;;1.58;;
53497;SDS011;39382;47.168;16.008;2023-07-22T08:22:38;1.67;;;1.23;;
53497;SDS011;39382;47.168;16.008;2023-07-22T08:25:04;3.17;;;1.50;;
53497;SDS011;39382;47.168;16.008;2023-07-22T08:27:30;1.10;;;1.00;;
53497;SDS011;39382;47.168;16.008;2023-07-22T08:29:55;1.50;;;1.40;;
53497;SDS011;39382;47.168;16.008;2023-07-22T08:32:21;2.97;;;1.23;;
53497;SDS011;39382;47.168;16.008;2023-07-22T08:34:46;2.60;;;1.58;;
53497;SDS011;39382;47.168;16.008;2023-07-22T08:37:12;1.48;;;1.38;;
53497;SDS011;39382;47.168;16.008;2023-07-22T08:39:38;2.35;;;1.52;;
53497;SDS011;39382;47.168;16.008;2023-07-22T08:42:04;2.05;;;1.85;;
53497;SDS011;39382;47.168;16.008;2023-07-22T08:44:32;1.52;;;1.05;;
53497;SDS011;39382;47.168;16.008;2023-07-22T08:47:02;3.22;;;1.30;;
53497;SDS011;39382;47.168;16.008;2023-07-22T08:49:30;2.22;;;1.50;;
53497;SDS011;39382;47.168;16.008;2023-07-22T08:51:57;2.13;;;1.30;;
53497;SDS011;39382;47.168;16.008;2023-07-22T08:54:24;1.38;;;1.27;;
53497;SDS011;39382;47.168;16.008;2023-07-22T08:56:50;3.88;;;1.60;;
53497;SDS011;39382;47.168;16.008;2023-07-22T08:59:19;2.00;;;1.27;;
53497;SDS011;39382;47.168;16.008;2023-07-22T09:01:46;4.05;;;1.55;;
53497;SDS011;39382;47.168;16.008;2023-07-22T09:04:13;4.40;;;1.40;;
53497;SDS011;39382;47.168;16.008;2023-07-22T09:06:39;3.15;;;1.60;;
53497;SDS011;39382;47.168;16.008;2023-07-22T09:09:06;1.52;;;1.42;;
53497;SDS011;39382;47.168;16.008;2023-07-22T09:11:34;1.40;;;1.15;;
53497;SDS011;39382;47.168;16.008;2023-07-22T09:14:01;1.80;;;1.38;;
53497;SDS011;39382;47.168;16.008;2023-07-22T09:16:29;5.68;;;1.45;;
53497;SDS011;39382;47.168;16.008;2023-07-22T09:18:57;2.58;;;1.75;;
53497;SDS011;39382;47.168;16.008;2023-07-22T09:21:23;3.75;;;1.48;;
53497;SDS011;39382;47.168;16.008;2023-07-22T09:23:49;1.55;;;1.13;;
53497;SDS011;39382;47.168;16.008;2023-07-22T09:26:15;1.83;;;1.38;;
53497;SDS011;39382;47.168;16.008;2023-07-22T09:31:14;2.60;;;1.13;;
53497;SDS011;39382;47.168;16.008;2023-07-22T09:33:39;1.30;;;1.20;;
53497;SDS011;39382;47.168;16.008;2023-07-22T09:36:05;2.22;;;1.60;;
53497;SDS011;39382;47.168;16.008;2023-07-22T09:38:31;1.88;;;1.60;;
53497;SDS011;39382;47.168;16.008;2023-07-22T09:40:56;2.75;;;1.60;;
53497;SDS011;39382;47.168;16.008;2023-07-22T09:43:22;1.08;;;0.90;;
53497;SDS011;39382;47.168;16.008;2023-07-22T09:45:49;3.33;;;1.30;;
53497;SDS011;39382;47.168;16.008;2023-07-22T09:48:15;3.63;;;1.35;;
53497;SDS011;39382;47.168;16.008;2023-07-22T09:50:41;2.50;;;1.65;;
53497;SDS011;39382;47.168;16.008;2023-07-22T09:53:06;2.08;;;1.42;;
53497;SDS011;39382;47.168;16.008;2023-07-22T09:55:32;3.08;;;1.35;;
53497;SDS011;39382;47.168;16.008;2023-07-22T10:00:29;3.17;;;1.77;;
53497;SDS011;39382;47.168;16.008;2023-07-22T10:02:58;4.65;;;1.90;;
53497;SDS011;39382;47.168;16.008;2023-07-22T10:05:26;1.52;;;1.10;;
53497;SDS011;39382;47.168;16.008;2023-07-22T10:07:55;2.58;;;1.35;;
53497;SDS011;39382;47.168;16.008;2023-07-22T10:10:26;1.85;;;1.30;;
53497;SDS011;39382;47.168;16.008;2023-07-22T10:13:12;3.10;;;1.20;;
53497;SDS011;39382;47.168;16.008;2023-07-22T10:15:38;4.55;;;2.17;;
53497;SDS011;39382;47.168;16.008;2023-07-22T10:18:04;2.00;;;1.60;;
53497;SDS011;39382;47.168;16.008;2023-07-22T10:20:30;1.88;;;1.30;;
53497;SDS011;39382;47.168;16.008;2023-07-22T10:22:59;1.33;;;1.23;;
53497;SDS011;39382;47.168;16.008;2023-07-22T10:25:26;1.20;;;1.10;;
53497;SDS011;39382;47.168;16.008;2023-07-22T10:27:52;1.17;;;1.10;;
53497;SDS011;39382;47.168;16.008;2023-07-22T10:30:18;1.90;;;1.55;;
53497;SDS011;39382;47.168;16.008;2023-07-22T10:32:45;2.83;;;1.88;;
53497;SDS011;39382;47.168;16.008;2023-07-22T10:35:16;3.72;;;1.48;;
53497;SDS011;39382;47.168;16.008;2023-07-22T10:37:49;1.13;;;1.00;;
53497;SDS011;39382;47.168;16.008;2023-07-22T10:40:18;1.65;;;1.55;;
53497;SDS011;39382;47.168;16.008;2023-07-22T10:42:53;1.35;;;1.23;;
53497;SDS011;39382;47.168;16.008;2023-07-22T10:45:26;10.02;;;1.77;;
53497;SDS011;39382;47.168;16.008;2023-07-22T10:48:06;2.10;;;1.23;;
53497;SDS011;39382;47.168;16.008;2023-07-22T10:53:20;1.27;;;1.15;;
53497;SDS011;39382;47.168;16.008;2023-07-22T10:56:05;1.90;;;1.23;;
53497;SDS011;39382;47.168;16.008;2023-07-22T11:01:24;1.38;;;1.27;;
53497;SDS011;39382;47.168;16.008;2023-07-22T11:04:05;1.77;;;1.40;;
53497;SDS011;39382;47.168;16.008;2023-07-22T11:06:39;2.00;;;1.30;;
53497;SDS011;39382;47.168;16.008;2023-07-22T11:09:05;1.50;;;1.40;;
53497;SDS011;39382;47.168;16.008;2023-07-22T11:11:38;2.47;;;1.70;;
53497;SDS011;39382;47.168;16.008;2023-07-22T11:14:12;5.28;;;1.70;;
53497;SDS011;39382;47.168;16.008;2023-07-22T11:16:39;2.00;;;1.30;;
53497;SDS011;39382;47.168;16.008;2023-07-22T11:19:07;2.25;;;1.50;;
53497;SDS011;39382;47.168;16.008;2023-07-22T11:21:32;5.82;;;1.60;;
53497;SDS011;39382;47.168;16.008;2023-07-22T11:23:58;1.48;;;1.25;;
53497;SDS011;39382;47.168;16.008;2023-07-22T11:26:23;4.72;;;1.13;;
53497;SDS011;39382;47.168;16.008;2023-07-22T11:28:49;2.08;;;1.58;;
53497;SDS011;39382;47.168;16.008;2023-07-22T11:31:15;1.25;;;1.15;;
53497;SDS011;39382;47.168;16.008;2023-07-22T11:33:42;1.98;;;1.77;;
53497;SDS011;39382;47.168;16.008;2023-07-22T11:36:09;1.80;;;1.10;;
53497;SDS011;39382;47.168;16.008;2023-07-22T11:38:35;7.40;;;3.05;;
53497;SDS011;39382;47.168;16.008;2023-07-22T11:41:01;2.45;;;1.27;;
53497;SDS011;39382;47.168;16.008;2023-07-22T11:43:27;3.72;;;1.48;;
53497;SDS011;39382;47.168;16.008;2023-07-22T11:45:53;2.13;;;1.38;;
53497;SDS011;39382;47.168;16.008;2023-07-22T11:48:18;2.75;;;1.65;;
53497;SDS011;39382;47.168;16.008;2023-07-22T11:50:44;0.90;;;0.90;;
53497;SDS011;39382;47.168;16.008;2023-07-22T11:53:10;1.50;;;1.40;;
53497;SDS011;39382;47.168;16.008;2023-07-22T11:55:36;1.60;;;1.45;;
53497;SDS011;39382;47.168;16.008;2023-07-22T11:58:03;1.33;;;1.23;;
53497;SDS011;39382;47.168;16.008;2023-07-22T12:00:28;1.80;;;1.70;;
53497;SDS011;39382;47.168;16.008;2023-07-22T12:02:54;3.28;;;1.42;;
53497;SDS011;39382;47.168;16.008;2023-07-22T12:05:22;1.90;;;1.20;;
53497;SDS011;39382;47.168;16.008;2023-07-22T12:07:48;1.83;;;1.55;;
53497;SDS011;39382;47.168;16.008;2023-07-22T12:10:15;2.63;;;1.50;;
53497;SDS011;39382;47.168;16.008;2023-07-22T12:15:11;1.40;;;1.30;;
53497;SDS011;39382;47.168;16.008;2023-07-22T12:17:45;2.08;;;1.58;;
53497;SDS011;39382;47.168;16.008;2023-07-22T12:20:16;2.22;;;1.48;;
53497;SDS011;39382;47.168;16.008;2023-07-22T12:22:43;4.28;;;1.38;;
53497;SDS011;39382;47.168;16.008;2023-07-22T12:25:09;2.33;;;1.98;;
53497;SDS011;39382;47.168;16.008;2023-07-22T12:27:35;1.90;;;1.60;;
53497;SDS011;39382;47.168;16.008;2023-07-22T12:30:01;2.40;;;1.77;;
53497;SDS011;39382;47.168;16.008;2023-07-22T12:32:28;1.77;;;1.50;;
53497;SDS011;39382;47.168;16.008;2023-07-22T12:34:53;5.30;;;1.95;;
53497;SDS011;39382;47.168;16.008;2023-07-22T12:37:19;3.53;;;1.55;;
53497;SDS011;39382;47.168;16.008;2023-07-22T12:39:45;2.65;;;1.40;;
53497;SDS011;39382;47.168;16.008;2023-07-22T12:42:11;2.13;;;1.90;;
53497;SDS011;39382;47.168;16.008;2023-07-22T12:44:36;3.33;;;1.50;;
53497;SDS011;39382;47.168;16.008;2023-07-22T12:47:02;1.95;;;1.80;;
53497;SDS011;39382;47.168;16.008;2023-07-22T12:49:28;2.42;;;1.63;;
53497;SDS011;39382;47.168;16.008;2023-07-22T12:51:53;3.20;;;1.20;;
53497;SDS011;39382;47.168;16.008;2023-07-22T12:54:19;2.60;;;1.23;;
53497;SDS011;39382;47.168;16.008;2023-07-22T12:56:44;1.58;;;1.48;;
53497;SDS011;39382;47.168;16.008;2023-07-22T12:59:10;3.10;;;1.40;;
53497;SDS011;39382;47.168;16.008;2023-07-22T13:01:36;1.77;;;1.58;;
53497;SDS011;39382;47.168;16.008;2023-07-22T13:04:04;2.25;;;1.73;;
53497;SDS011;39382;47.168;16.008;2023-07-22T13:06:30;1.98;;;1.50;;
53497;SDS011;39382;47.168;16.008;2023-07-22T13:08:56;2.40;;;1.60;;
53497;SDS011;39382;47.168;16.008;2023-07-22T13:11:21;4.15;;;2.90;;
53497;SDS011;39382;47.168;16.008;2023-07-22T13:13:47;2.33;;;1.75;;
53497;SDS011;39382;47.168;16.008;2023-07-22T13:16:12;3.38;;;1.52;;
53497;SDS011;39382;47.168;16.008;2023-07-22T13:18:38;2.47;;;1.75;;
53497;SDS011;39382;47.168;16.008;2023-07-22T13:21:04;2.13;;;1.52;;
53497;SDS011;39382;47.168;16.008;2023-07-22T13:23:30;1.83;;;1.27;;
53497;SDS011;39382;47.168;16.008;2023-07-22T13:25:55;2.17;;;1.90;;
53497;SDS011;39382;47.168;16.008;2023-07-22T13:28:21;2.22;;;1.42;;
53497;SDS011;39382;47.168;16.008;2023-07-22T13:30:46;2.92;;;1.52;;
53497;SDS011;39382;47.168;16.008;2023-07-22T13:33:12;2.80;;;1.88;;
53497;SDS011;39382;47.168;16.008;2023-07-22T13:35:37;2.22;;;1.58;;
53497;SDS011;39382;47.168;16.008;2023-07-22T13:38:03;2.33;;;1.52;;
53497;SDS011;39382;47.168;16.008;2023-07-22T13:40:29;2.65;;;1.45;;
53497;SDS011;39382;47.168;16.008;2023-07-22T13:42:55;3.10;;;1.60;;
53497;SDS011;39382;47.168;16.008;2023-07-22T13:45:21;1.90;;;1.35;;
53497;SDS011;39382;47.168;16.008;2023-07-22T13:47:46;2.97;;;1.85;;
53497;SDS011;39382;47.168;16.008;2023-07-22T13:50:12;2.00;;;1.35;;
53497;SDS011;39382;47.168;16.008;2023-07-22T13:52:38;2.97;;;1.55;;
53497;SDS011;39382;47.168;16.008;2023-07-22T13:55:05;1.27;;;1.17;;
53497;SDS011;39382;47.168;16.008;2023-07-22T13:57:31;2.83;;;1.65;;
53497;SDS011;39382;47.168;16.008;2023-07-22T13:59:56;4.78;;;1.40;;
53497;SDS011;39382;47.168;16.008;2023-07-22T14:02:22;1.20;;;1.10;;
53497;SDS011;39382;47.168;16.008;2023-07-22T14:04:48;4.15;;;1.60;;
53497;SDS011;39382;47.168;16.008;2023-07-22T14:07:13;2.38;;;1.40;;
53497;SDS011;39382;47.168;16.008;2023-07-22T14:09:39;1.65;;;1.52;;
53497;SDS011;39382;47.168;16.008;2023-07-22T14:12:04;2.75;;;1.65;;
53497;SDS011;39382;47.168;16.008;2023-07-22T14:14:30;1.77;;;1.52;;
53497;SDS011;39382;47.168;16.008;2023-07-22T14:16:56;1.75;;;1.30;;
53497;SDS011;39382;47.168;16.008;2023-07-22T14:19:22;3.03;;;1.73;;
53497;SDS011;39382;47.168;16.008;2023-07-22T14:21:49;1.52;;;1.17;;
53497;SDS011;39382;47.168;16.008;2023-07-22T14:24:14;1.70;;;1.35;;
53497;SDS011;39382;47.168;16.008;2023-07-22T14:26:40;1.77;;;1.52;;
53497;SDS011;39382;47.168;16.008;2023-07-22T14:29:05;4.78;;;2.08;;
53497;SDS011;39382;47.168;16.008;2023-07-22T14:31:31;2.50;;;1.88;;
53497;SDS011;39382;47.168;16.008;2023-07-22T14:33:57;2.25;;;1.42;;
53497;SDS011;39382;47.168;16.008;2023-07-22T14:36:22;7.28;;;1.92;;
53497;SDS011;39382;47.168;16.008;2023-07-22T14:38:49;1.65;;;1.40;;
53497;SDS011;39382;47.168;16.008;2023-07-22T14:41:14;1.60;;;1.33;;
53497;SDS011;39382;47.168;16.008;2023-07-22T14:43:40;6.82;;;1.70;;